Sunday, December 17, 2017, 2:34 PM EST
Back to Local

KIPT, Williamsport-lycoming County

Location: Montoursville, PA, United States Lat: 41.25
Local Time: 2:34 PM EST (19:34 GMT) Lon: -76.917
Time Zone: US/Eastern Elev: 528 ft

Show me the last for .
Show Coded

Time T Td Feel RH Dir Speed Gust Alt SLP Vis Weather Sky Remarks
2017-12-17 13:54 37 27 - 66 - Calm - 30.19 30.21 10 OVC200 None
2017-12-17 12:54 37 27 - 66 - Calm - 30.20 30.21 10 OVC200 6-hr Min Temp (1pm): 34.0°F
6-hr Max Temp (1pm): 37.9°F
2017-12-17 11:54 37 27 - 66 - Calm - 30.23 30.25 10 OVC200 None
2017-12-17 10:54 37 26 - 64 - Calm - 30.27 30.28 10 OVC200 None
2017-12-17 09:54 35 27 32 72 120° 3 - 30.25 30.27 10 FEW045 None
2017-12-17 08:54 35 26 31 69 90° 5 - 30.25 30.27 10 OVC044 None
2017-12-17 07:54 34 25 30 69 50° 5 - 30.24 30.26 10 OVC043 None
2017-12-17 06:54 34 26 - 72 - Calm - 30.23 30.24 10 OVC044 6-hr Min Temp (7am): 34.0°F
6-hr Max Temp (7am): 35.1°F
2017-12-17 05:54 34 25 - 69 - Calm - 30.21 30.23 10 OVC046 None
2017-12-17 04:54 34 25 30 69 60° 5 - 30.19 30.21 10 OVC047 None
2017-12-17 03:54 34 25 30 69 60° 5 - 30.21 30.22 10 OVC050 None
2017-12-17 03:02 34 25 31 69 40° 3 - 30.22 - 10 SCT028 OVC050 None
2017-12-17 02:54 34 26 - 72 - Calm - 30.22 30.23 10 BKN029 BKN033 OVC050 None
2017-12-17 02:46 34 26 31 72 70° 3 - 30.21 - 10 BKN027 OVC050 None
2017-12-17 01:54 35 26 - 69 - Calm - 30.19 30.20 10 FEW028 OVC050 None
2017-12-17 01:39 34 26 31 72 60° 3 - 30.18 - 10 SCT029 OVC050 None
2017-12-17 00:54 34 26 31 72 90° 3 - 30.18 30.19 10 BKN029 OVC050 6-hr Min Temp (1am): 34.0°F
6-hr Max Temp (1am): 37.9°F
2017-12-16 23:54 35 28 31 75 90° 5 - 30.17 30.19 10 OVC027 24-hr Min Temp (12am): 12.9°F
24-hr Max Temp (12am): 39.9°F
2017-12-16 22:54 34 28 - 78 - Calm - 30.15 30.17 10 OVC028 None
2017-12-16 21:54 36 29 - 75 - Calm - 30.15 30.16 10 OVC027 None
2017-12-16 20:54 37 27 - 66 - Calm - 30.14 30.16 10 OVC027 None
2017-12-16 19:54 37 28 33 69 10° 5 - 30.13 30.15 10 OVC025 None
2017-12-16 19:26 37 28 32 69 10° 6 - 30.12 - 10 BKN028 OVC034 None
2017-12-16 18:54 38 29 36 69 280° 3 - 30.10 30.12 10 OVC036 6-hr Min Temp (7pm): 37.0°F
6-hr Max Temp (7pm): 39.9°F
2017-12-16 17:54 38 29 - 69 - Calm - 30.07 30.09 10 OVC037 None
2017-12-16 16:54 39 29 35 66 280° 6 - 30.04 30.06 10 BKN040 OVC065 None
2017-12-16 15:54 39 28 33 64 270° 8 - 30.00 30.01 10 OVC043 None
2017-12-16 14:54 40 27 30 59 270° 12 20 29.97 29.98 10 OVC038 None

Support USWX by starting your Amazon purchase here.